Time;durP1;ratioP1;P1;durP2;ratioP2;P2;SDS_P1;SDS_P2;PMS_P1;PMS_P2;Temp;Humidity;BMP_temperature;BMP_pressure;BME280_temperature;BME280_humidity;BME280_pressure;Samples;Min_cycle;Max_cycle;Signal;HPM_P1;HPM_P2
2024/01/31 00:01:32;;;;;;;14.50;5.45;;;;;;;5.36;100.00;103126.06;5112273;28;20471;-74
2024/01/31 00:03:58;;;;;;;13.20;4.75;;;;;;;5.34;100.00;103125.34;5093973;28;20042;-74
2024/01/31 00:06:23;;;;;;;11.60;4.53;;;;;;;5.32;100.00;103124.63;5112162;28;20023;-74
2024/01/31 00:08:49;;;;;;;16.15;4.85;;;;;;;5.35;100.00;103127.03;5112221;28;20087;-75
2024/01/31 00:11:14;;;;;;;11.80;4.95;;;;;;;5.34;100.00;103118.22;5112209;28;20175;-74
2024/01/31 00:13:40;;;;;;;11.27;4.70;;;;;;;5.36;100.00;103115.44;5112203;28;20157;-73
2024/01/31 00:16:05;;;;;;;13.25;4.78;;;;;;;5.35;100.00;103125.22;5111983;28;20088;-74
2024/01/31 00:18:31;;;;;;;9.65;4.57;;;;;;;5.28;100.00;103118.72;5112035;28;20031;-74
2024/01/31 00:20:56;;;;;;;12.75;4.68;;;;;;;5.28;100.00;103135.47;5112158;28;20034;-75
2024/01/31 00:23:23;;;;;;;11.38;4.90;;;;;;;5.29;100.00;103147.78;5112075;28;20032;-74
2024/01/31 00:25:48;;;;;;;9.88;4.80;;;;;;;5.25;100.00;103143.69;5093646;28;20035;-74
2024/01/31 00:28:14;;;;;;;13.77;4.65;;;;;;;5.26;100.00;103148.03;5093671;28;20038;-74
2024/01/31 00:30:39;;;;;;;12.15;5.07;;;;;;;5.25;100.00;103151.63;5093500;28;20073;-74
2024/01/31 00:33:04;;;;;;;18.08;4.97;;;;;;;5.25;100.00;103151.63;5093539;28;20032;-73
2024/01/31 00:35:30;;;;;;;15.95;4.85;;;;;;;5.29;100.00;103161.03;5093620;28;20047;-72
2024/01/31 00:37:55;;;;;;;18.75;6.53;;;;;;;5.24;100.00;103152.59;5093324;28;20038;-74
2024/01/31 00:40:21;;;;;;;15.63;5.70;;;;;;;5.26;100.00;103157.78;5093475;28;20019;-74
2024/01/31 00:42:46;;;;;;;15.80;5.57;;;;;;;5.30;100.00;103167.19;5111657;28;20036;-74
2024/01/31 00:45:13;;;;;;;14.68;5.38;;;;;;;5.31;100.00;103174.19;5093468;28;20077;-74
2024/01/31 00:47:43;;;;;;;14.13;5.50;;;;;;;5.31;100.00;103168.88;5093400;28;20039;-74
2024/01/31 00:50:10;;;;;;;16.92;6.00;;;;;;;5.30;100.00;103180.44;5111625;28;20027;-73
2024/01/31 00:52:35;;;;;;;14.90;6.20;;;;;;;5.28;100.00;103172.59;5111530;28;20053;-74
2024/01/31 00:55:01;;;;;;;17.02;6.38;;;;;;;5.23;100.00;103161.53;5111556;28;20032;-75
2024/01/31 00:57:26;;;;;;;17.83;6.60;;;;;;;5.19;100.00;103168.00;5093204;28;20077;-73
2024/01/31 00:59:51;;;;;;;15.50;6.50;;;;;;;5.23;100.00;103174.78;5093286;28;20080;-73
2024/01/31 01:02:17;;;;;;;16.60;6.65;;;;;;;5.24;100.00;103175.63;5111495;28;20421;-73
2024/01/31 01:04:43;;;;;;;14.57;6.50;;;;;;;5.20;100.00;103171.50;5093143;28;20024;-72
2024/01/31 01:07:08;;;;;;;17.40;6.15;;;;;;;5.23;100.00;103189.84;5111532;28;20422;-74
2024/01/31 01:09:36;;;;;;;12.63;6.28;;;;;;;5.12;100.00;103171.28;5111780;28;20030;-73
2024/01/31 01:12:02;;;;;;;14.38;5.97;;;;;;;5.16;100.00;103176.22;5111367;28;20020;-73
2024/01/31 01:14:28;;;;;;;9.32;5.30;;;;;;;5.11;100.00;103173.09;5111258;28;20575;-74
2024/01/31 01:16:53;;;;;;;14.73;5.47;;;;;;;5.10;100.00;103170.56;5111269;28;20057;-73
2024/01/31 01:19:18;;;;;;;10.80;5.20;;;;;;;5.17;100.00;103183.22;5093010;28;20070;-72
2024/01/31 01:21:44;;;;;;;14.20;5.30;;;;;;;5.19;100.00;103183.09;5092951;28;20051;-74
2024/01/31 01:24:09;;;;;;;12.95;5.28;;;;;;;5.21;100.00;103186.50;5092909;28;20036;-74
2024/01/31 01:26:40;;;;;;;13.23;5.22;;;;;;;5.18;100.00;103184.03;5092990;28;20031;-74
2024/01/31 01:29:07;;;;;;;9.98;4.60;;;;;;;5.19;100.00;103183.94;5092926;28;20024;-72
2024/01/31 01:31:32;;;;;;;11.38;4.78;;;;;;;5.16;100.00;103183.31;5111201;28;20491;-75
2024/01/31 01:33:59;;;;;;;10.05;3.50;;;;;;;5.12;100.00;103176.59;5111014;28;20030;-73
2024/01/31 01:36:24;;;;;;;12.65;3.83;;;;;;;5.10;100.00;103179.34;5113403;28;20020;-74
2024/01/31 01:38:50;;;;;;;9.10;3.25;;;;;;;5.08;100.00;103186.59;5114430;28;20041;-75
2024/01/31 01:41:15;;;;;;;10.75;4.03;;;;;;;5.02;100.00;103186.22;5096144;28;20436;-74
2024/01/31 01:43:42;;;;;;;8.55;3.60;;;;;;;5.04;100.00;103186.94;5114472;28;20032;-74
2024/01/31 01:46:17;;;;;;;6.78;3.13;;;;;;;5.08;100.00;103188.41;5114421;28;20034;-73
2024/01/31 01:48:46;;;;;;;13.95;3.30;;;;;;;5.07;100.00;103184.91;5096038;28;20035;-74
2024/01/31 01:51:17;;;;;;;7.93;3.10;;;;;;;5.06;100.00;103188.53;5095946;28;20023;-74
2024/01/31 01:53:44;;;;;;;9.35;3.50;;;;;;;5.02;100.00;103181.78;5095862;28;20251;-74
2024/01/31 01:56:10;;;;;;;9.45;3.40;;;;;;;5.00;100.00;103183.69;5114345;28;20030;-74
2024/01/31 01:58:36;;;;;;;10.32;3.60;;;;;;;5.00;100.00;103178.41;5095957;28;20032;-73
2024/01/31 02:01:03;;;;;;;8.57;3.25;;;;;;;5.02;100.00;103176.47;5114163;28;20058;-73
2024/01/31 02:03:31;;;;;;;11.60;3.17;;;;;;;5.03;100.00;103178.16;5095800;28;20492;-72
2024/01/31 02:05:58;;;;;;;7.07;3.42;;;;;;;5.06;100.00;103177.91;5113963;28;20019;-74
2024/01/31 02:08:26;;;;;;;9.50;3.30;;;;;;;5.05;100.00;103176.22;5114051;28;20479;-74
2024/01/31 02:10:51;;;;;;;5.45;3.10;;;;;;;5.06;100.00;103174.41;5113991;28;20020;-74
2024/01/31 02:13:16;;;;;;;10.10;3.47;;;;;;;5.07;100.00;103173.44;5113956;28;20481;-75
2024/01/31 02:15:55;;;;;;;12.52;3.55;;;;;;;5.10;100.00;103181.16;5095517;28;20433;-75
2024/01/31 02:18:21;;;;;;;8.98;2.90;;;;;;;5.06;100.00;103169.97;5113697;28;20023;-74
2024/01/31 02:20:47;;;;;;;12.38;3.95;;;;;;;5.09;100.00;103175.00;5095453;28;20031;-74
2024/01/31 02:23:13;;;;;;;5.65;2.90;;;;;;;5.08;100.00;103175.13;5095626;28;20019;-75
2024/01/31 02:25:38;;;;;;;10.55;3.70;;;;;;;5.01;100.00;103166.81;5095557;28;20027;-75
2024/01/31 02:28:04;;;;;;;10.15;4.32;;;;;;;5.03;100.00;103170.19;5113715;28;20601;-73
2024/01/31 02:30:29;;;;;;;8.63;3.92;;;;;;;4.95;100.00;103169.97;5113788;28;20030;-75
2024/01/31 02:32:56;;;;;;;12.93;4.60;;;;;;;4.96;100.00;103174.31;5113540;28;20032;-74
2024/01/31 02:35:22;;;;;;;6.03;3.13;;;;;;;5.00;100.00;103174.91;5113487;28;20016;-74
2024/01/31 02:37:47;;;;;;;6.43;3.28;;;;;;;4.97;100.00;103168.03;5113535;28;20024;-74
2024/01/31 02:40:12;;;;;;;10.52;3.78;;;;;;;4.99;100.00;103176.72;5113477;28;20032;-73
2024/01/31 02:42:38;;;;;;;7.63;3.38;;;;;;;4.99;100.00;103168.75;5094918;28;20031;-74
2024/01/31 02:45:04;;;;;;;7.15;2.85;;;;;;;5.02;100.00;103181.78;5113108;28;20032;-74
2024/01/31 02:47:29;;;;;;;6.22;3.03;;;;;;;5.03;100.00;103172.00;5093711;28;20080;-74
2024/01/31 02:49:55;;;;;;;7.45;2.78;;;;;;;4.99;100.00;103166.09;5094918;28;20020;-74
2024/01/31 02:52:20;;;;;;;7.80;3.20;;;;;;;5.07;100.00;103179.59;5094788;28;20032;-73
2024/01/31 02:54:45;;;;;;;11.73;3.38;;;;;;;5.02;100.00;103168.50;5094746;28;20019;-74
2024/01/31 02:57:11;;;;;;;8.98;3.35;;;;;;;5.04;100.00;103168.41;5112939;28;20027;-75
2024/01/31 02:59:36;;;;;;;8.18;3.63;;;;;;;4.94;100.00;103162.97;5094861;28;20464;-74
2024/01/31 03:02:02;;;;;;;5.72;2.90;;;;;;;4.87;100.00;103162.59;5095044;28;20024;-73
2024/01/31 03:04:28;;;;;;;8.52;4.00;;;;;;;4.83;100.00;103149.69;5094995;28;20027;-74
2024/01/31 03:06:53;;;;;;;7.80;3.25;;;;;;;4.83;100.00;103152.34;5113147;28;20031;-73
2024/01/31 03:09:21;;;;;;;10.63;4.38;;;;;;;4.85;100.00;103145.97;5094666;28;20039;-74
2024/01/31 03:11:46;;;;;;;13.82;3.88;;;;;;;4.79;100.00;103140.31;5113000;28;20046;-74
2024/01/31 03:14:12;;;;;;;11.90;4.28;;;;;;;4.78;100.00;103142.09;5113036;28;20456;-74
2024/01/31 03:16:39;;;;;;;8.38;4.00;;;;;;;4.79;100.00;103151.75;5094701;28;20384;-73
2024/01/31 03:19:06;;;;;;;8.68;4.15;;;;;;;4.79;100.00;103150.91;5112659;28;20032;-74
2024/01/31 03:21:31;;;;;;;11.10;4.18;;;;;;;4.79;100.00;103145.59;5094456;28;20437;-73
2024/01/31 03:23:56;;;;;;;9.50;4.00;;;;;;;4.79;100.00;103135.00;5112707;28;20027;-73
2024/01/31 03:26:22;;;;;;;11.02;3.80;;;;;;;4.81;100.00;103136.56;5094278;28;20023;-74
2024/01/31 03:28:47;;;;;;;14.02;5.80;;;;;;;4.85;100.00;103135.34;5094370;28;20035;-74
2024/01/31 03:31:12;;;;;;;12.23;3.72;;;;;;;4.87;100.00;103128.13;5112696;28;20027;-73
2024/01/31 03:33:38;;;;;;;7.22;4.40;;;;;;;4.92;100.00;103127.78;5094460;28;20034;-73
2024/01/31 03:36:03;;;;;;;9.43;4.25;;;;;;;4.84;100.00;103127.53;5112626;28;20023;-74
2024/01/31 03:38:29;;;;;;;11.40;4.47;;;;;;;4.82;100.00;103126.81;5112472;28;20107;-74
2024/01/31 03:40:54;;;;;;;7.97;4.68;;;;;;;4.78;100.00;103123.56;5094035;28;20031;-74
2024/01/31 03:43:20;;;;;;;10.73;4.65;;;;;;;4.80;100.00;103129.56;5094053;28;20468;-73
2024/01/31 03:45:46;;;;;;;13.93;5.43;;;;;;;4.80;100.00;103126.09;5094006;28;20472;-74
2024/01/31 03:48:11;;;;;;;14.70;5.05;;;;;;;4.81;100.00;103122.47;5094481;28;20074;-74
2024/01/31 03:50:37;;;;;;;16.60;4.80;;;;;;;4.82;100.00;103122.34;5112322;28;20055;-73
2024/01/31 03:53:02;;;;;;;12.65;4.65;;;;;;;4.81;100.00;103123.31;5112322;28;20028;-74
2024/01/31 03:55:27;;;;;;;12.05;4.18;;;;;;;4.82;100.00;103126.81;5093881;28;20572;-73
2024/01/31 03:57:53;;;;;;;12.52;5.57;;;;;;;4.79;100.00;103124.41;5111666;28;20032;-73
2024/01/31 04:00:18;;;;;;;9.93;4.53;;;;;;;4.75;100.00;103126.44;5093789;28;20024;-74
2024/01/31 04:02:44;;;;;;;13.35;5.10;;;;;;;4.71;100.00;103119.72;5093778;28;20105;-74
2024/01/31 04:05:12;;;;;;;13.45;6.13;;;;;;;4.81;100.00;103128.63;5112065;28;20020;-74
2024/01/31 04:07:38;;;;;;;11.25;5.55;;;;;;;4.82;100.00;103122.34;5112291;28;20039;-73
2024/01/31 04:10:03;;;;;;;10.20;4.70;;;;;;;4.85;100.00;103121.25;5112105;28;20030;-73
2024/01/31 04:12:29;;;;;;;15.90;6.07;;;;;;;4.81;100.00;103114.53;5093823;28;20028;-73
2024/01/31 04:14:54;;;;;;;13.80;5.30;;;;;;;4.75;100.00;103112.34;5111859;28;20073;-73
2024/01/31 04:17:21;;;;;;;15.70;6.05;;;;;;;4.74;100.00;103110.66;5111768;28;20034;-75
2024/01/31 04:19:48;;;;;;;16.52;7.28;;;;;;;4.67;100.00;103112.97;5093498;28;20533;-74
2024/01/31 04:22:15;;;;;;;14.55;6.47;;;;;;;4.64;100.00;103108.75;5093865;28;20034;-74
2024/01/31 04:24:40;;;;;;;12.27;6.20;;;;;;;4.68;100.00;103117.31;5093610;28;20057;-74
2024/01/31 04:27:06;;;;;;;11.45;5.80;;;;;;;4.72;100.00;103120.53;5093659;28;20027;-74
2024/01/31 04:29:31;;;;;;;13.95;5.90;;;;;;;4.76;100.00;103114.03;5111823;28;20511;-74
2024/01/31 04:31:57;;;;;;;17.27;6.50;;;;;;;4.72;100.00;103115.25;5111930;28;20513;-74
2024/01/31 04:34:22;;;;;;;11.63;5.80;;;;;;;4.76;100.00;103122.00;5093597;28;20126;-73
2024/01/31 04:36:47;;;;;;;11.90;5.68;;;;;;;4.78;100.00;103118.25;5093571;28;20023;-73
2024/01/31 04:39:13;;;;;;;12.50;5.35;;;;;;;4.78;100.00;103114.75;5093334;28;20032;-74
2024/01/31 04:41:38;;;;;;;11.25;6.50;;;;;;;4.76;100.00;103114.88;5093443;28;20030;-74
2024/01/31 04:44:04;;;;;;;11.38;5.95;;;;;;;4.74;100.00;103110.66;5111809;28;20069;-72
2024/01/31 04:46:30;;;;;;;15.50;7.30;;;;;;;4.68;100.00;103111.16;5093332;28;20039;-72
2024/01/31 04:48:55;;;;;;;19.40;8.30;;;;;;;4.68;100.00;103116.47;5111472;28;20027;-72
2024/01/31 04:51:20;;;;;;;21.17;9.10;;;;;;;4.65;100.00;103109.59;5093135;28;20072;-73
2024/01/31 04:53:46;;;;;;;17.60;7.55;;;;;;;4.70;100.00;103111.88;5111412;28;20076;-74
2024/01/31 04:56:11;;;;;;;19.88;8.10;;;;;;;4.73;100.00;103114.28;5111365;28;20472;-73
2024/01/31 04:58:37;;;;;;;17.88;8.13;;;;;;;4.77;100.00;103113.91;5093115;28;20040;-72
2024/01/31 05:01:03;;;;;;;21.50;8.20;;;;;;;4.80;100.00;103118.13;5093114;28;20032;-73
2024/01/31 05:03:29;;;;;;;14.45;7.50;;;;;;;4.78;100.00;103112.97;5111507;28;20395;-74
2024/01/31 05:05:54;;;;;;;25.25;9.38;;;;;;;4.84;100.00;103109.81;5111424;28;20027;-74
2024/01/31 05:08:19;;;;;;;20.42;9.30;;;;;;;4.85;100.00;103105.38;5093394;28;20146;-74
2024/01/31 05:10:45;;;;;;;19.40;9.63;;;;;;;4.83;100.00;103107.28;5112782;28;20066;-73
2024/01/31 05:13:12;;;;;;;18.90;8.80;;;;;;;4.85;100.00;103106.19;5096576;28;20051;-73
2024/01/31 05:15:38;;;;;;;22.77;11.57;;;;;;;4.82;100.00;103109.09;5114840;28;20388;-73
2024/01/31 05:18:04;;;;;;;21.35;9.27;;;;;;;4.88;100.00;103097.16;5096339;28;20028;-74
2024/01/31 05:20:29;;;;;;;24.88;9.18;;;;;;;4.86;100.00;103104.41;5096399;28;20502;-74
2024/01/31 05:22:55;;;;;;;19.70;10.52;;;;;;;4.85;100.00;103100.06;5096342;28;20088;-73
2024/01/31 05:25:21;;;;;;;25.02;11.02;;;;;;;4.79;100.00;103101.38;5114664;28;20027;-73
2024/01/31 05:27:48;;;;;;;29.63;12.43;;;;;;;4.78;100.00;103101.50;5114659;28;20031;-74
2024/01/31 05:30:13;;;;;;;24.90;10.02;;;;;;;4.85;100.00;103113.31;5114837;28;20408;-72
2024/01/31 05:32:39;;;;;;;27.70;10.70;;;;;;;4.81;100.00;103098.63;5096327;28;20038;-73
2024/01/31 05:35:04;;;;;;;17.88;9.82;;;;;;;4.80;100.00;103100.44;5114657;28;20027;-72
2024/01/31 05:37:30;;;;;;;29.17;11.63;;;;;;;4.83;100.00;103115.25;5114403;28;20127;-71
2024/01/31 05:39:55;;;;;;;20.52;10.35;;;;;;;4.81;100.00;103109.22;5114567;28;20084;-72
2024/01/31 05:42:20;;;;;;;25.08;12.68;;;;;;;4.80;100.00;103108.38;5114462;28;20027;-72
2024/01/31 05:44:48;;;;;;;22.48;10.32;;;;;;;4.81;100.00;103119.81;5096184;28;20042;-72
2024/01/31 05:47:13;;;;;;;22.02;10.63;;;;;;;4.82;100.00;103110.91;5114536;28;20055;-71
2024/01/31 05:49:39;;;;;;;21.50;10.48;;;;;;;4.84;100.00;103114.28;5114467;28;20074;-72
2024/01/31 05:52:04;;;;;;;27.08;10.93;;;;;;;4.85;100.00;103110.66;5114387;28;20441;-73
2024/01/31 05:54:30;;;;;;;23.77;11.63;;;;;;;4.86;100.00;103115.00;5096130;28;20027;-73
2024/01/31 05:56:55;;;;;;;21.83;11.07;;;;;;;4.81;100.00;103112.72;5114408;28;20030;-73
2024/01/31 05:59:20;;;;;;;27.50;10.20;;;;;;;4.82;100.00;103110.91;5114201;28;20043;-73
2024/01/31 06:01:46;;;;;;;29.83;11.80;;;;;;;4.77;100.00;103108.63;5114096;28;20031;-73
2024/01/31 06:04:11;;;;;;;20.45;9.60;;;;;;;4.74;100.00;103100.91;5114037;28;20028;-73
2024/01/31 06:06:36;;;;;;;29.95;12.60;;;;;;;4.78;100.00;103114.75;5113895;28;20038;-73
2024/01/31 06:09:03;;;;;;;25.45;11.13;;;;;;;4.72;100.00;103105.50;5095971;28;20482;-73
2024/01/31 06:11:29;;;;;;;30.30;13.02;;;;;;;4.76;100.00;103120.19;5095824;28;20031;-73
2024/01/31 06:13:54;;;;;;;25.60;10.60;;;;;;;4.75;100.00;103110.56;5114029;28;20029;-73
2024/01/31 06:16:19;;;;;;;19.85;11.13;;;;;;;4.80;100.00;103107.53;5095527;28;20027;-73
2024/01/31 06:18:45;;;;;;;25.15;10.43;;;;;;;4.76;100.00;103106.94;5114485;28;20072;-74
2024/01/31 06:21:10;;;;;;;24.05;12.45;;;;;;;4.78;100.00;103104.16;5097071;28;20099;-73
2024/01/31 06:23:35;;;;;;;29.83;13.93;;;;;;;4.74;100.00;103098.25;5115346;28;20020;-72
2024/01/31 06:26:02;;;;;;;28.35;13.50;;;;;;;4.75;100.00;103091.16;5095751;28;20066;-72
2024/01/31 06:28:28;;;;;;;27.00;13.20;;;;;;;4.77;100.00;103091.88;5095372;28;20093;-70
2024/01/31 06:31:01;;;;;;;29.80;13.20;;;;;;;4.71;100.00;103089.72;5113887;28;20031;-73
2024/01/31 06:33:29;;;;;;;27.42;14.77;;;;;;;4.65;100.00;103067.19;5113879;28;20387;-72
2024/01/31 06:35:55;;;;;;;30.80;13.63;;;;;;;4.72;100.00;103080.78;5095344;28;20027;-73
2024/01/31 06:38:21;;;;;;;27.50;13.27;;;;;;;4.70;100.00;103077.44;5113510;28;20032;-74
2024/01/31 06:40:46;;;;;;;29.88;15.75;;;;;;;4.65;100.00;103060.09;5113718;28;20053;-72
2024/01/31 06:43:11;;;;;;;33.97;16.08;;;;;;;4.65;100.00;103062.75;5095231;28;20391;-72
2024/01/31 06:45:38;;;;;;;33.22;15.88;;;;;;;4.65;100.00;103051.28;5096587;28;20024;-70
2024/01/31 06:48:04;;;;;;;29.75;15.07;;;;;;;4.67;100.00;103052.03;5096202;28;20430;-72
2024/01/31 06:50:29;;;;;;;27.75;13.98;;;;;;;4.63;100.00;103054.06;5114395;28;20084;-73
2024/01/31 06:52:54;;;;;;;30.92;13.35;;;;;;;4.66;100.00;103052.97;5113635;28;20023;-74
2024/01/31 06:55:20;;;;;;;29.63;13.30;;;;;;;4.69;100.00;103060.69;5113099;28;20032;-73
2024/01/31 06:57:45;;;;;;;30.80;14.43;;;;;;;4.71;100.00;103055.25;5094625;28;20031;-73
2024/01/31 07:00:11;;;;;;;31.80;15.38;;;;;;;4.66;100.00;103056.47;5113098;28;20058;-73
2024/01/31 07:02:37;;;;;;;35.83;14.73;;;;;;;4.70;100.00;103064.19;5113030;28;20053;-74
2024/01/31 07:05:04;;;;;;;31.02;14.38;;;;;;;4.74;100.00;103081.53;5094875;28;20047;-75
2024/01/31 07:07:29;;;;;;;30.90;13.90;;;;;;;4.74;100.00;103095.63;5094850;28;20522;-72
2024/01/31 07:09:55;;;;;;;25.20;14.60;;;;;;;4.77;100.00;103103.31;5112970;28;20028;-76
2024/01/31 07:12:21;;;;;;;37.75;15.05;;;;;;;4.78;100.00;103112.97;5112890;28;20042;-73
2024/01/31 07:14:46;;;;;;;27.73;14.63;;;;;;;4.84;100.00;103124.88;5094647;28;20119;-74
2024/01/31 07:17:11;;;;;;;30.95;15.30;;;;;;;4.84;100.00;103131.03;5113045;28;20034;-72
2024/01/31 07:19:42;;;;;;;25.13;14.25;;;;;;;4.84;100.00;103130.19;5112627;28;20118;-71
2024/01/31 07:22:07;;;;;;;29.27;15.32;;;;;;;4.84;100.00;103133.69;5094402;28;20084;-69
2024/01/31 07:24:33;;;;;;;31.17;14.95;;;;;;;4.90;100.00;103153.56;5112806;28;20039;-72
2024/01/31 07:26:59;;;;;;;27.52;14.65;;;;;;;4.91;100.00;103164.03;5094261;28;20247;-71
2024/01/31 07:29:25;;;;;;;33.53;15.80;;;;;;;4.92;100.00;103154.31;5094282;28;20036;-72
2024/01/31 07:31:50;;;;;;;32.08;16.20;;;;;;;4.98;100.00;103164.41;5094318;28;20027;-71
2024/01/31 07:34:15;;;;;;;32.70;16.13;;;;;;;4.96;100.00;103161.03;5093515;28;20028;-71
2024/01/31 07:36:41;;;;;;;36.25;14.98;;;;;;;4.98;100.00;103167.06;5112584;28;20032;-71
2024/01/31 07:39:06;;;;;;;29.40;16.48;;;;;;;4.94;100.00;103161.16;5112365;28;20085;-71
2024/01/31 07:41:33;;;;;;;31.17;15.68;;;;;;;4.96;100.00;103167.19;5112464;28;20471;-73
2024/01/31 07:43:58;;;;;;;31.60;15.85;;;;;;;4.96;100.00;103164.53;5112553;28;20107;-72
2024/01/31 07:46:23;;;;;;;37.15;16.45;;;;;;;4.99;100.00;103174.06;5094214;28;20454;-71
2024/01/31 07:48:49;;;;;;;28.95;15.05;;;;;;;4.94;100.00;103162.97;5112260;28;20039;-71
2024/01/31 07:51:15;;;;;;;36.50;16.88;;;;;;;4.96;100.00;103171.66;5112253;28;20035;-72
2024/01/31 07:53:40;;;;;;;30.75;16.58;;;;;;;4.99;100.00;103168.75;5094008;28;20100;-71
2024/01/31 07:56:06;;;;;;;34.75;16.42;;;;;;;5.01;100.00;103174.78;5093973;28;20051;-71
2024/01/31 07:58:32;;;;;;;38.20;17.50;;;;;;;4.94;100.00;103165.63;5112139;28;20077;-71
2024/01/31 08:00:57;;;;;;;31.88;16.45;;;;;;;4.95;100.00;103162.00;5112218;28;20107;-71
2024/01/31 08:03:23;;;;;;;32.17;16.33;;;;;;;4.95;100.00;103159.38;5112133;28;20028;-71
2024/01/31 08:05:48;;;;;;;31.02;16.33;;;;;;;5.00;100.00;103164.31;5112188;28;20030;-72
2024/01/31 08:08:15;;;;;;;34.75;20.65;;;;;;;4.94;100.00;103155.88;5093775;28;20130;-70
2024/01/31 08:10:40;;;;;;;35.42;18.23;;;;;;;4.92;100.00;103160.44;5093646;28;20035;-70
2024/01/31 08:13:05;;;;;;;34.58;17.77;;;;;;;4.93;100.00;103151.53;5093617;28;20027;-73
2024/01/31 08:15:31;;;;;;;37.15;18.48;;;;;;;4.93;100.00;103143.56;5111867;28;20066;-72
2024/01/31 08:17:57;;;;;;;35.67;18.70;;;;;;;4.97;100.00;103149.47;5093463;28;20035;-73
2024/01/31 08:20:22;;;;;;;35.55;16.88;;;;;;;4.97;100.00;103155.63;5093734;28;20495;-72
2024/01/31 08:22:48;;;;;;;32.92;17.77;;;;;;;4.94;100.00;103150.56;5093459;28;20063;-73
2024/01/31 08:25:13;;;;;;;39.97;19.38;;;;;;;4.96;100.00;103151.28;5111749;28;20031;-75
2024/01/31 08:27:38;;;;;;;37.75;18.65;;;;;;;4.98;100.00;103156.47;5093431;28;20114;-73
2024/01/31 08:30:05;;;;;;;37.38;19.40;;;;;;;4.96;100.00;103159.25;5111893;28;20035;-75
2024/01/31 08:32:34;;;;;;;42.80;20.13;;;;;;;5.01;100.00;103153.56;5112203;28;20034;-73
2024/01/31 08:35:01;;;;;;;35.03;18.65;;;;;;;4.98;100.00;103137.91;5093831;28;20058;-73
2024/01/31 08:37:27;;;;;;;45.33;19.70;;;;;;;5.05;100.00;103139.09;5093379;28;20032;-75
2024/01/31 08:39:52;;;;;;;45.40;19.13;;;;;;;5.03;100.00;103138.38;5093468;28;20376;-76
2024/01/31 08:42:17;;;;;;;36.70;18.63;;;;;;;5.08;100.00;103136.22;5111881;28;20464;-73
2024/01/31 08:44:43;;;;;;;40.00;19.60;;;;;;;5.12;100.00;103129.69;5093370;28;20027;-74
2024/01/31 08:47:08;;;;;;;42.30;20.67;;;;;;;5.11;100.00;103133.31;5115375;28;20038;-73
2024/01/31 08:49:34;;;;;;;43.58;18.00;;;;;;;5.16;100.00;103127.63;5115377;28;20119;-72
2024/01/31 08:51:59;;;;;;;42.13;19.98;;;;;;;5.20;100.00;103121.13;5096910;28;20445;-74
2024/01/31 08:54:25;;;;;;;40.83;19.48;;;;;;;5.24;100.00;103115.47;5097016;28;20405;-72
2024/01/31 08:56:50;;;;;;;46.10;22.77;;;;;;;5.24;100.00;103112.81;5096958;28;20070;-72
2024/01/31 08:59:17;;;;;;;35.95;18.30;;;;;;;5.28;100.00;103111.59;5115185;28;20035;-72
2024/01/31 09:01:46;;;;;;;43.85;19.42;;;;;;;5.32;100.00;103119.31;5115280;28;20035;-73
2024/01/31 09:04:12;;;;;;;41.72;20.27;;;;;;;5.36;100.00;103112.78;5115181;28;20138;-73
2024/01/31 09:06:39;;;;;;;41.30;22.30;;;;;;;5.33;100.00;103102.44;5115183;28;20118;-73
2024/01/31 09:09:06;;;;;;;39.40;18.63;;;;;;;5.39;100.00;103107.22;5096787;28;20066;-71
2024/01/31 09:11:31;;;;;;;44.00;20.02;;;;;;;5.41;100.00;103097.34;5096759;28;20030;-71
2024/01/31 09:13:56;;;;;;;49.65;22.27;;;;;;;5.40;100.00;103096.50;5115205;28;20024;-71
2024/01/31 09:16:22;;;;;;;45.53;20.80;;;;;;;5.36;100.00;103091.56;5114991;28;20449;-72
2024/01/31 09:18:47;;;;;;;49.47;23.40;;;;;;;5.39;100.00;103083.34;5096854;28;20016;-72
2024/01/31 09:21:27;;;;;;;51.50;21.95;;;;;;;5.40;100.00;103069.13;5096477;28;20031;-72
2024/01/31 09:23:55;;;;;;;45.22;19.38;;;;;;;5.50;100.00;103075.38;5115032;28;20028;-73
2024/01/31 09:26:21;;;;;;;48.15;22.05;;;;;;;5.56;100.00;103070.41;5114929;28;20475;-73
2024/01/31 09:28:47;;;;;;;43.78;22.85;;;;;;;5.56;100.00;103070.41;5096505;28;20039;-73
2024/01/31 09:31:26;;;;;;;47.60;23.73;;;;;;;5.57;100.00;103064.13;5114756;28;20467;-72
2024/01/31 09:33:53;;;;;;;56.95;26.73;;;;;;;5.62;100.00;103071.72;5114752;28;20055;-73
2024/01/31 09:36:19;;;;;;;49.60;23.73;;;;;;;5.63;100.00;103064.59;5096573;28;20045;-72
2024/01/31 09:38:47;;;;;;;57.47;25.10;;;;;;;5.68;100.00;103073.84;5114524;28;20099;-72
2024/01/31 09:41:12;;;;;;;48.53;21.10;;;;;;;5.64;100.00;103064.47;5096226;28;20110;-75
2024/01/31 09:43:37;;;;;;;47.80;22.13;;;;;;;5.67;100.00;103048.28;5114341;28;20119;-72
2024/01/31 09:46:04;;;;;;;60.13;26.38;;;;;;;5.74;100.00;103051.25;5114190;28;20031;-74
2024/01/31 09:48:31;;;;;;;50.08;23.92;;;;;;;5.75;100.00;103040.50;5114382;28;20031;-73
2024/01/31 09:51:02;;;;;;;54.55;25.05;;;;;;;5.82;100.00;103044.38;5096068;28;20023;-74
2024/01/31 09:53:33;;;;;;;48.38;22.92;;;;;;;5.88;100.00;103043.84;5096043;28;20024;-73
2024/01/31 09:55:59;;;;;;;48.38;26.38;;;;;;;5.89;100.00;103042.91;5113974;28;20031;-74
2024/01/31 09:58:25;;;;;;;46.08;24.00;;;;;;;5.96;100.00;103045.03;5114321;28;20027;-74
2024/01/31 10:00:51;;;;;;;48.75;22.52;;;;;;;6.09;100.00;103045.69;5114176;28;20024;-73
2024/01/31 10:03:17;;;;;;;47.67;22.52;;;;;;;6.19;100.00;103046.59;5095653;28;20122;-72
2024/01/31 10:05:42;;;;;;;39.88;20.15;;;;;;;6.32;100.00;103052.53;5113836;28;20063;-73
2024/01/31 10:08:08;;;;;;;45.10;20.23;;;;;;;6.49;100.00;103057.25;5113869;28;20527;-73
2024/01/31 10:10:33;;;;;;;40.58;21.08;;;;;;;6.59;100.00;103070.56;5095787;28;20028;-74
2024/01/31 10:12:59;;;;;;;40.17;20.17;;;;;;;6.55;100.00;103068.31;5095704;28;20388;-74
2024/01/31 10:15:24;;;;;;;39.58;19.15;;;;;;;6.58;100.00;103076.88;5095337;28;20042;-72
2024/01/31 10:17:49;;;;;;;40.10;21.20;;;;;;;6.53;100.00;103073.75;5113785;28;20118;-73
2024/01/31 10:20:15;;;;;;;33.50;19.05;;;;;;;6.46;100.00;103077.94;5113578;28;20059;-73
2024/01/31 10:22:41;;;;;;;31.05;18.02;;;;;;;6.49;100.00;103075.84;5113537;28;20468;-75
2024/01/31 10:25:07;;;;;;;33.35;16.00;;;;;;;6.56;100.00;103085.94;5113813;28;20028;-73
2024/01/31 10:27:37;;;;;;;32.72;16.13;;;;;;;6.52;100.00;103085.38;5095306;28;20023;-73
2024/01/31 10:30:08;;;;;;;30.63;16.35;;;;;;;6.53;100.00;103087.06;5095387;28;20106;-73
2024/01/31 10:32:35;;;;;;;28.42;15.40;;;;;;;6.54;100.00;103094.06;5095245;28;20517;-74
2024/01/31 10:35:02;;;;;;;30.33;16.02;;;;;;;6.52;100.00;103085.38;5113347;28;20032;-73
2024/01/31 10:37:28;;;;;;;27.02;15.90;;;;;;;6.53;100.00;103081.75;5095103;28;20034;-73
2024/01/31 10:39:54;;;;;;;29.25;15.10;;;;;;;6.56;100.00;103080.63;5113587;28;20400;-73
2024/01/31 10:42:21;;;;;;;26.52;14.57;;;;;;;6.58;100.00;103079.53;5095314;28;20027;-74
2024/01/31 10:44:48;;;;;;;29.75;15.45;;;;;;;6.62;100.00;103086.25;5113680;28;20019;-75
2024/01/31 10:47:13;;;;;;;26.15;14.45;;;;;;;6.59;100.00;103083.88;5113284;28;20110;-71
2024/01/31 10:49:38;;;;;;;27.25;14.48;;;;;;;6.50;100.00;103082.84;5113326;28;20220;-72
2024/01/31 10:52:07;;;;;;;27.08;14.38;;;;;;;6.45;100.00;103084.22;5095035;28;20476;-73
2024/01/31 10:54:36;;;;;;;26.38;14.60;;;;;;;6.42;100.00;103080.00;5095054;28;20032;-71
2024/01/31 10:57:04;;;;;;;20.20;13.10;;;;;;;6.44;100.00;103067.44;5113275;28;20023;-72
2024/01/31 10:59:36;;;;;;;22.98;14.48;;;;;;;6.39;100.00;103066.16;5113266;28;20243;-72
2024/01/31 11:02:02;;;;;;;26.15;14.85;;;;;;;6.38;100.00;103062.66;5094864;28;20429;-73
2024/01/31 11:04:28;;;;;;;22.70;13.75;;;;;;;6.40;100.00;103055.38;5113071;28;20099;-74
2024/01/31 11:06:53;;;;;;;25.35;14.00;;;;;;;6.45;100.00;103057.66;5112891;28;20358;-73
2024/01/31 11:09:23;;;;;;;23.10;13.80;;;;;;;6.49;100.00;103059.91;5111963;28;20480;-73